Warrenton, Oregon
Current Conditions -  °F | °C
As of 5:55 AM on Monday 24 Nov 2014 (Local Time) from KAST Reporting Station
Overcast Overcast  
Wind Chill: 40°   Ceiling: 1900
Heat Index: 43°   Visibility: 10mi
Dew Point: 41°   Wind: 5mph
Humidity: 93%   Direction: 100°E
Pressure: 30.32"   Gusts: NA
Location:  46.17°N, 123.92°W
Report Text: KAST 241355Z AUTO 10004KT 10SM OVC019 06/05 A3032 RMK AO2 SLP265 T00610050
Loading
Personal Weather Stations






























Interactive Weather Map New forecast layout! Learn more

10-Day Weather Forecast

Advertisements
Track Severe Weather on mobile